createdAt,value
2016-12-18T00:00:26.497Z,0
2016-12-18T00:01:37.475Z,0
2016-12-18T00:02:48.462Z,0
2016-12-18T00:03:59.501Z,0
2016-12-18T00:05:10.498Z,0
2016-12-18T00:06:21.493Z,0
2016-12-18T00:07:32.477Z,0
2016-12-18T00:08:43.660Z,0
2016-12-18T00:09:54.642Z,0
2016-12-18T00:11:05.623Z,0
2016-12-18T00:12:16.610Z,0
2016-12-18T00:13:27.600Z,0
2016-12-18T00:14:38.585Z,0
2016-12-18T00:15:49.573Z,0
2016-12-18T00:17:00.559Z,0
2016-12-18T00:18:11.544Z,0
2016-12-18T00:19:22.737Z,0
2016-12-18T00:20:33.721Z,0
2016-12-18T00:21:44.701Z,0
2016-12-18T00:22:55.687Z,0
2016-12-18T00:24:06.875Z,0
2016-12-18T00:25:17.852Z,0
2016-12-18T00:26:29.036Z,0
2016-12-18T00:27:40.012Z,0
2016-12-18T00:28:50.996Z,0
2016-12-18T00:30:01.986Z,0
2016-12-18T00:31:13.177Z,0
2016-12-18T00:32:24.165Z,0
2016-12-18T00:33:35.146Z,0
2016-12-18T00:34:46.178Z,0
2016-12-18T00:35:57.157Z,0
2016-12-18T00:37:08.137Z,0
2016-12-18T00:38:19.124Z,0
2016-12-18T00:39:30.110Z,0
2016-12-18T00:40:41.107Z,0
2016-12-18T00:41:52.101Z,0
2016-12-18T00:43:03.088Z,0
2016-12-18T00:44:14.270Z,0
2016-12-18T00:45:25.298Z,0
2016-12-18T00:46:36.281Z,0
2016-12-18T00:47:47.467Z,0
2016-12-18T00:48:58.449Z,0
2016-12-18T00:50:09.437Z,0
2016-12-18T00:51:20.422Z,0
2016-12-18T00:52:31.413Z,0
2016-12-18T00:53:42.390Z,0
2016-12-18T00:54:53.576Z,0
2016-12-18T00:56:04.563Z,0
2016-12-18T00:57:15.562Z,0
2016-12-18T00:58:26.545Z,0
2016-12-18T00:59:37.540Z,0
2016-12-18T01:00:48.525Z,0
2016-12-18T01:01:59.720Z,0
2016-12-18T01:03:10.703Z,0
2016-12-18T01:04:21.681Z,0
2016-12-18T01:05:32.664Z,0
2016-12-18T01:06:43.643Z,0
2016-12-18T01:07:54.624Z,0
2016-12-18T01:09:05.609Z,0
2016-12-18T01:10:16.617Z,0
2016-12-18T01:11:27.613Z,0
2016-12-18T01:12:38.600Z,0
2016-12-18T01:13:49.592Z,0
2016-12-18T01:15:00.579Z,0
2016-12-18T01:16:11.569Z,0
2016-12-18T01:17:22.554Z,0
2016-12-18T01:18:33.536Z,0
2016-12-18T01:19:44.521Z,0
2016-12-18T01:20:55.561Z,0
2016-12-18T01:22:06.547Z,0
2016-12-18T01:23:17.532Z,0
2016-12-18T01:24:28.515Z,0
2016-12-18T01:25:39.497Z,0
2016-12-18T01:26:50.482Z,0
2016-12-18T01:28:01.476Z,0
2016-12-18T01:29:12.673Z,0
2016-12-18T01:30:23.874Z,0
2016-12-18T01:31:35.077Z,0
2016-12-18T01:32:46.262Z,0
2016-12-18T01:33:57.449Z,0
2016-12-18T01:35:08.440Z,0
2016-12-18T01:36:19.475Z,0
2016-12-18T01:37:30.663Z,0
2016-12-18T01:38:41.648Z,0
2016-12-18T01:39:52.837Z,0
2016-12-18T01:41:04.056Z,0
2016-12-18T01:42:15.045Z,0
2016-12-18T01:43:26.030Z,0
2016-12-18T01:44:37.023Z,0
2016-12-18T01:45:48.007Z,0
2016-12-18T01:46:59.210Z,0
2016-12-18T01:48:10.199Z,0
2016-12-18T01:49:21.209Z,0
2016-12-18T01:50:32.200Z,0
2016-12-18T01:51:43.185Z,0
2016-12-18T01:52:54.163Z,0
2016-12-18T01:54:05.158Z,0
2016-12-18T01:55:16.142Z,0
2016-12-18T01:56:27.125Z,0
2016-12-18T01:57:38.147Z,0
2016-12-18T01:58:49.129Z,0
2016-12-18T02:00:00.115Z,0
2016-12-18T02:01:11.107Z,0
2016-12-18T02:02:22.088Z,0
2016-12-18T02:03:33.282Z,0
2016-12-18T02:04:44.268Z,0
2016-12-18T02:05:55.251Z,0
2016-12-18T02:07:06.283Z,0
2016-12-18T02:08:17.270Z,0
2016-12-18T02:09:28.260Z,0
2016-12-18T02:10:39.447Z,0
2016-12-18T02:11:50.634Z,0
2016-12-18T02:13:01.819Z,0
2016-12-18T02:14:12.814Z,0
2016-12-18T02:15:23.801Z,0
2016-12-18T02:16:34.779Z,0
2016-12-18T02:17:45.769Z,0
2016-12-18T02:18:56.764Z,0
2016-12-18T02:20:07.963Z,0
2016-12-18T02:21:19.154Z,0
2016-12-18T02:22:30.539Z,0
2016-12-18T02:23:41.724Z,0
2016-12-18T02:24:52.719Z,0
2016-12-18T02:26:03.915Z,0
2016-12-18T02:27:14.932Z,0
2016-12-18T02:28:25.909Z,0
2016-12-18T02:29:36.892Z,0
2016-12-18T02:30:47.902Z,0
2016-12-18T02:31:58.883Z,0
2016-12-18T02:33:09.865Z,0
2016-12-18T02:34:20.849Z,0
2016-12-18T02:35:31.841Z,0
2016-12-18T02:36:42.830Z,0
2016-12-18T02:37:53.807Z,0
2016-12-18T02:39:04.802Z,0
2016-12-18T02:40:15.790Z,0
2016-12-18T02:41:26.776Z,0
2016-12-18T02:42:37.961Z,0
2016-12-18T02:43:49.150Z,0
2016-12-18T02:45:00.145Z,0
2016-12-18T02:46:11.137Z,0
2016-12-18T02:47:22.121Z,0
2016-12-18T02:48:33.107Z,0
2016-12-18T02:49:44.095Z,0
2016-12-18T02:50:55.283Z,0
2016-12-18T02:52:06.265Z,0
2016-12-18T02:53:17.454Z,0
2016-12-18T02:54:28.450Z,0
2016-12-18T02:55:39.440Z,0
2016-12-18T02:56:50.434Z,0
2016-12-18T02:58:01.424Z,0
2016-12-18T02:59:12.414Z,0
2016-12-18T03:00:23.399Z,0
2016-12-18T03:01:34.392Z,0
2016-12-18T03:02:45.378Z,0
2016-12-18T03:03:56.366Z,0
2016-12-18T03:05:07.350Z,0
2016-12-18T03:06:18.334Z,0
2016-12-18T03:07:29.331Z,0
2016-12-18T03:08:40.350Z,0
2016-12-18T03:09:51.339Z,0
2016-12-18T03:11:02.525Z,0
2016-12-18T03:12:13.724Z,0
2016-12-18T03:13:24.749Z,0
2016-12-18T03:14:35.736Z,0
2016-12-18T03:15:46.723Z,0
2016-12-18T03:16:57.713Z,0
2016-12-18T03:18:08.696Z,0
2016-12-18T03:19:19.683Z,0
2016-12-18T03:20:30.882Z,0
2016-12-18T03:21:41.877Z,0
2016-12-18T03:22:52.860Z,0
2016-12-18T03:24:03.850Z,0
2016-12-18T03:25:14.841Z,0
2016-12-18T03:26:25.838Z,0
2016-12-18T03:27:36.885Z,0
2016-12-18T03:28:47.873Z,0
2016-12-18T03:29:58.858Z,0
2016-12-18T03:31:09.843Z,0
2016-12-18T03:32:21.035Z,0
2016-12-18T03:33:32.032Z,0
2016-12-18T03:34:43.012Z,0
2016-12-18T03:35:54.008Z,0
2016-12-18T03:37:05.028Z,0
2016-12-18T03:38:16.016Z,0
2016-12-18T03:39:27.408Z,0
2016-12-18T03:40:38.390Z,0
2016-12-18T03:41:49.385Z,0
2016-12-18T03:43:00.366Z,0
2016-12-18T03:44:11.388Z,0
2016-12-18T03:45:22.377Z,0
2016-12-18T03:46:33.361Z,0
2016-12-18T03:47:44.348Z,0
2016-12-18T03:48:55.332Z,0
2016-12-18T03:50:06.328Z,0
2016-12-18T03:51:17.318Z,0
2016-12-18T03:52:28.514Z,0
2016-12-18T03:53:39.494Z,0
2016-12-18T03:54:50.483Z,0
2016-12-18T03:56:01.473Z,0
2016-12-18T03:57:12.463Z,0
2016-12-18T03:58:23.454Z,0
2016-12-18T03:59:34.450Z,0
2016-12-18T04:00:45.437Z,0
2016-12-18T04:01:56.477Z,0
2016-12-18T04:03:07.468Z,0
2016-12-18T04:04:18.450Z,0
2016-12-18T04:05:29.437Z,0
2016-12-18T04:06:40.427Z,0
2016-12-18T04:07:51.619Z,0
2016-12-18T04:09:02.616Z,0
2016-12-18T04:10:13.604Z,0
2016-12-18T04:11:24.589Z,0
2016-12-18T04:12:35.578Z,0
2016-12-18T04:13:46.562Z,0
2016-12-18T04:14:57.560Z,0
2016-12-18T04:16:08.546Z,0
2016-12-18T04:17:19.731Z,0
2016-12-18T04:18:30.714Z,0
2016-12-18T04:19:41.697Z,0
2016-12-18T04:20:52.684Z,0
2016-12-18T04:22:03.670Z,0
2016-12-18T04:23:14.648Z,0
2016-12-18T04:24:25.833Z,0
2016-12-18T04:25:36.826Z,0
2016-12-18T04:26:47.803Z,0
2016-12-18T04:27:58.791Z,0
2016-12-18T04:29:09.785Z,0
2016-12-18T04:30:20.772Z,0
2016-12-18T04:31:31.754Z,0
2016-12-18T04:32:42.745Z,0
2016-12-18T04:33:53.931Z,0
2016-12-18T04:35:04.931Z,0
2016-12-18T04:36:15.926Z,0
2016-12-18T04:37:26.964Z,0
2016-12-18T04:38:38.364Z,0
2016-12-18T04:39:49.345Z,0
2016-12-18T04:41:00.328Z,0
2016-12-18T04:42:11.345Z,0
2016-12-18T04:43:22.375Z,0
2016-12-18T04:44:33.358Z,0
2016-12-18T04:45:44.535Z,0
2016-12-18T04:46:55.528Z,0
2016-12-18T04:48:06.547Z,0
2016-12-18T04:49:17.582Z,0
2016-12-18T04:50:28.599Z,0
2016-12-18T04:51:39.606Z,0
2016-12-18T04:52:50.807Z,0
2016-12-18T04:54:01.793Z,0
2016-12-18T04:55:12.831Z,0
2016-12-18T04:56:23.822Z,0
2016-12-18T04:57:34.806Z,0
2016-12-18T04:58:45.789Z,0
2016-12-18T04:59:56.779Z,0
2016-12-18T05:01:07.810Z,0
2016-12-18T05:02:18.992Z,0
2016-12-18T05:03:29.988Z,0
2016-12-18T05:04:41.008Z,0
2016-12-18T05:05:52.195Z,0
2016-12-18T05:07:03.440Z,0
2016-12-18T05:08:14.460Z,0
2016-12-18T05:09:25.456Z,0
2016-12-18T05:10:36.435Z,0
2016-12-18T05:11:47.420Z,0
2016-12-18T05:12:58.453Z,0
2016-12-18T05:14:09.447Z,0
2016-12-18T05:15:20.456Z,0
2016-12-18T05:16:31.440Z,0
2016-12-18T05:17:42.429Z,0
2016-12-18T05:18:53.467Z,0
2016-12-18T05:20:04.487Z,0
2016-12-18T05:21:15.482Z,0
2016-12-18T05:22:26.665Z,0
2016-12-18T05:23:37.641Z,0
2016-12-18T05:24:48.675Z,0
2016-12-18T05:25:59.691Z,0
2016-12-18T05:27:10.679Z,0
2016-12-18T05:28:21.876Z,0
2016-12-18T05:29:32.869Z,0
2016-12-18T05:30:43.909Z,0
2016-12-18T05:31:54.932Z,0
2016-12-18T05:33:05.914Z,0
2016-12-18T05:34:16.905Z,0
2016-12-18T05:35:27.895Z,0
2016-12-18T05:36:38.937Z,0
2016-12-18T05:37:49.922Z,0
2016-12-18T05:39:00.911Z,0
2016-12-18T05:40:11.893Z,0
2016-12-18T05:41:22.884Z,0
2016-12-18T05:42:34.122Z,0
2016-12-18T05:43:45.108Z,0
2016-12-18T05:44:56.092Z,0
2016-12-18T05:46:07.077Z,0
2016-12-18T05:47:18.064Z,0
2016-12-18T05:48:29.101Z,0
2016-12-18T05:49:40.088Z,0
2016-12-18T05:50:51.074Z,0
2016-12-18T05:52:02.061Z,0
2016-12-18T05:53:13.048Z,0
2016-12-18T05:54:24.096Z,0
2016-12-18T05:55:35.096Z,0
2016-12-18T05:56:46.093Z,0
2016-12-18T05:57:57.082Z,0
2016-12-18T05:59:08.069Z,0
2016-12-18T06:00:19.110Z,0
2016-12-18T06:01:30.108Z,0
2016-12-18T06:02:41.106Z,0
2016-12-18T06:03:52.084Z,0
2016-12-18T06:05:03.072Z,0
2016-12-18T06:06:14.109Z,0
2016-12-18T06:07:25.089Z,0
2016-12-18T06:08:36.477Z,0
2016-12-18T06:09:47.466Z,0
2016-12-18T06:10:58.662Z,0
2016-12-18T06:12:09.704Z,0
2016-12-18T06:13:20.680Z,0
2016-12-18T06:14:31.664Z,0
2016-12-18T06:15:42.686Z,0
2016-12-18T06:16:53.674Z,0
2016-12-18T06:18:04.908Z,0
2016-12-18T06:19:15.907Z,0
2016-12-18T06:20:26.887Z,0
2016-12-18T06:21:37.875Z,0
2016-12-18T06:22:49.274Z,0
2016-12-18T06:24:00.311Z,0
2016-12-18T06:25:11.297Z,0
2016-12-18T06:26:22.279Z,0
2016-12-18T06:27:33.269Z,0
2016-12-18T06:28:44.259Z,0
2016-12-18T06:29:55.329Z,0
2016-12-18T06:31:06.321Z,0
2016-12-18T06:32:17.336Z,0
2016-12-18T06:33:28.328Z,0
2016-12-18T06:34:39.332Z,0
2016-12-18T06:35:50.358Z,0
2016-12-18T06:37:01.543Z,0
2016-12-18T06:38:12.524Z,0
2016-12-18T06:39:23.510Z,0
2016-12-18T06:40:34.492Z,0
2016-12-18T06:41:45.528Z,0
2016-12-18T06:42:56.511Z,0
2016-12-18T06:44:07.503Z,0
2016-12-18T06:45:18.487Z,0
2016-12-18T06:46:29.476Z,0
2016-12-18T06:47:40.509Z,0
2016-12-18T06:48:51.500Z,0
2016-12-18T06:50:02.479Z,0
2016-12-18T06:51:13.465Z,0
2016-12-18T06:52:24.653Z,0
2016-12-18T06:53:35.678Z,0
2016-12-18T06:54:46.678Z,0
2016-12-18T06:55:57.666Z,0
2016-12-18T06:57:08.652Z,0
2016-12-18T06:58:19.640Z,0
2016-12-18T06:59:31.080Z,0
2016-12-18T07:00:42.076Z,0
2016-12-18T07:01:53.065Z,0
2016-12-18T07:03:04.082Z,0
2016-12-18T07:04:15.065Z,0
2016-12-18T07:05:26.304Z,0
2016-12-18T07:06:37.490Z,0
2016-12-18T07:07:48.476Z,0
2016-12-18T07:08:59.505Z,0
2016-12-18T07:10:10.488Z,0
2016-12-18T07:11:21.529Z,0
2016-12-18T07:12:32.716Z,0
2016-12-18T07:13:44.104Z,0
2016-12-18T07:14:55.496Z,0
2016-12-18T07:16:06.480Z,0
2016-12-18T07:17:17.510Z,0
2016-12-18T07:18:28.499Z,0
2016-12-18T07:19:39.490Z,0
2016-12-18T07:20:50.481Z,0
2016-12-18T07:22:01.462Z,0
2016-12-18T07:23:12.497Z,0
2016-12-18T07:24:23.486Z,0
2016-12-18T07:25:34.473Z,0
2016-12-18T07:26:45.656Z,0
2016-12-18T07:27:56.632Z,0
2016-12-18T07:29:07.662Z,0
2016-12-18T07:30:18.649Z,0
2016-12-18T07:31:29.640Z,0
2016-12-18T07:32:40.616Z,0
2016-12-18T07:33:51.817Z,0
2016-12-18T07:35:03.051Z,0
2016-12-18T07:36:14.035Z,5
2016-12-18T07:37:25.021Z,5
2016-12-18T07:38:36.206Z,5
2016-12-18T07:39:47.189Z,5
2016-12-18T07:40:58.227Z,5
2016-12-18T07:42:09.207Z,5
2016-12-18T07:43:20.204Z,5
2016-12-18T07:44:31.193Z,5
2016-12-18T07:45:42.178Z,5
2016-12-18T07:46:53.213Z,5
2016-12-18T07:48:04.198Z,10
2016-12-18T07:49:15.185Z,10
2016-12-18T07:50:26.170Z,10
2016-12-18T07:51:37.159Z,10
2016-12-18T07:52:48.225Z,15
2016-12-18T07:53:59.214Z,15
2016-12-18T07:55:10.200Z,15
2016-12-18T07:56:21.190Z,15
2016-12-18T07:57:32.175Z,20
2016-12-18T07:58:43.417Z,25
2016-12-18T07:59:54.610Z,30
2016-12-18T08:01:05.605Z,30
2016-12-18T08:02:16.619Z,35
2016-12-18T08:03:27.809Z,35
2016-12-18T08:04:38.845Z,40
2016-12-18T08:05:49.832Z,40
2016-12-18T08:07:00.821Z,40
2016-12-18T08:08:11.805Z,30
2016-12-18T08:09:22.796Z,30
2016-12-18T08:10:34.031Z,25
2016-12-18T08:11:45.012Z,25
2016-12-18T08:12:56.215Z,25
2016-12-18T08:14:07.210Z,25
2016-12-18T08:15:18.206Z,20
2016-12-18T08:16:29.465Z,20
2016-12-18T08:17:40.470Z,20
2016-12-18T08:18:51.653Z,25
2016-12-18T08:20:02.633Z,25
2016-12-18T08:21:13.641Z,35
2016-12-18T08:22:24.674Z,35
2016-12-18T08:23:35.667Z,40
2016-12-18T08:24:46.654Z,40
2016-12-18T08:25:57.642Z,45
2016-12-18T08:27:08.630Z,50
2016-12-18T08:28:19.703Z,50
2016-12-18T08:29:30.695Z,50
2016-12-18T08:30:41.708Z,50
2016-12-18T08:31:52.699Z,50
2016-12-18T08:33:03.679Z,50
2016-12-18T08:34:14.713Z,45
2016-12-18T08:35:25.706Z,40
2016-12-18T08:36:36.688Z,40
2016-12-18T08:37:47.671Z,40
2016-12-18T08:38:58.659Z,40
2016-12-18T08:40:09.892Z,40
2016-12-18T08:41:20.871Z,40
2016-12-18T08:42:31.859Z,40
2016-12-18T08:43:42.842Z,40
2016-12-18T08:44:53.825Z,40
2016-12-18T08:46:04.865Z,45
2016-12-18T08:47:15.852Z,45
2016-12-18T08:48:27.040Z,40
2016-12-18T08:49:38.028Z,40
2016-12-18T08:50:49.017Z,35
2016-12-18T08:52:00.116Z,35
2016-12-18T08:53:11.104Z,40
2016-12-18T08:54:22.084Z,45
2016-12-18T08:55:33.267Z,55
2016-12-18T08:56:44.252Z,60
2016-12-18T08:57:55.493Z,65
2016-12-18T08:59:06.490Z,75
2016-12-18T09:00:17.488Z,90
2016-12-18T09:01:28.500Z,70
2016-12-18T09:02:39.488Z,65
2016-12-18T09:03:50.560Z,70
2016-12-18T09:05:01.779Z,70
2016-12-18T09:06:12.761Z,85
2016-12-18T09:07:23.748Z,95
2016-12-18T09:08:34.937Z,75
2016-12-18T09:09:45.976Z,70
2016-12-18T09:10:57.169Z,70
2016-12-18T09:12:08.162Z,65
2016-12-18T09:13:19.145Z,55
2016-12-18T09:14:30.339Z,55
2016-12-18T09:15:41.403Z,75
2016-12-18T09:16:52.391Z,85
2016-12-18T09:18:03.378Z,90
2016-12-18T09:19:14.569Z,80
2016-12-18T09:20:25.558Z,75
2016-12-18T09:21:36.586Z,65
2016-12-18T09:22:47.595Z,60
2016-12-18T09:23:58.582Z,50
2016-12-18T09:25:09.572Z,50
2016-12-18T09:26:20.553Z,50
2016-12-18T09:27:31.587Z,50
2016-12-18T09:28:42.570Z,55
2016-12-18T09:29:53.556Z,50
2016-12-18T09:31:04.542Z,55
2016-12-18T09:32:15.532Z,60
2016-12-18T09:33:26.568Z,65
2016-12-18T09:34:37.553Z,55
2016-12-18T09:35:48.552Z,55
2016-12-18T09:36:59.552Z,60
2016-12-18T09:38:10.546Z,65
2016-12-18T09:39:21.585Z,65
2016-12-18T09:40:32.567Z,60
2016-12-18T09:41:43.552Z,55
2016-12-18T09:42:54.544Z,60
2016-12-18T09:44:05.539Z,65
2016-12-18T09:45:16.597Z,65
2016-12-18T09:46:27.580Z,75
2016-12-18T09:47:38.579Z,80
2016-12-18T09:48:49.564Z,80
2016-12-18T09:50:00.558Z,80
2016-12-18T09:51:11.598Z,85
2016-12-18T09:52:22.793Z,75
2016-12-18T09:53:33.777Z,80
2016-12-18T09:54:44.757Z,90
2016-12-18T09:55:55.953Z,100
2016-12-18T09:57:06.987Z,100
2016-12-18T09:58:17.978Z,90
2016-12-18T09:59:28.973Z,85
2016-12-18T10:00:39.965Z,95
2016-12-18T10:01:50.954Z,85
2016-12-18T10:03:02.185Z,85
2016-12-18T10:04:13.170Z,95
2016-12-18T10:05:24.184Z,100
2016-12-18T10:06:35.171Z,100
2016-12-18T10:07:46.161Z,105
2016-12-18T10:08:57.193Z,105
2016-12-18T10:10:08.187Z,105
2016-12-18T10:11:19.169Z,105
2016-12-18T10:12:30.156Z,110
2016-12-18T10:13:41.141Z,110
2016-12-18T10:14:52.180Z,105
2016-12-18T10:16:03.162Z,110
2016-12-18T10:17:14.356Z,115
2016-12-18T10:18:25.344Z,120
2016-12-18T10:19:36.356Z,125
2016-12-18T10:20:47.419Z,125
2016-12-18T10:21:58.601Z,130
2016-12-18T10:23:09.586Z,140
2016-12-18T10:24:20.571Z,145
2016-12-18T10:25:31.753Z,145
2016-12-18T10:26:42.795Z,150
2016-12-18T10:27:54.003Z,155
2016-12-18T10:29:04.988Z,150
2016-12-18T10:30:15.977Z,150
2016-12-18T10:31:26.969Z,150
2016-12-18T10:32:38.013Z,150
2016-12-18T10:33:49.000Z,145
2016-12-18T10:34:59.988Z,145
2016-12-18T10:36:10.971Z,145
2016-12-18T10:37:22.159Z,145
2016-12-18T10:38:33.198Z,150
2016-12-18T10:39:44.191Z,150
2016-12-18T10:40:55.174Z,160
2016-12-18T10:42:06.169Z,165
2016-12-18T10:43:17.157Z,175
2016-12-18T10:44:28.270Z,170
2016-12-18T10:45:39.255Z,170
2016-12-18T10:46:50.241Z,170
2016-12-18T10:48:01.428Z,170
2016-12-18T10:49:12.616Z,180
2016-12-18T10:50:23.657Z,175
2016-12-18T10:51:34.640Z,165
2016-12-18T10:52:45.825Z,170
2016-12-18T10:53:56.804Z,165
2016-12-18T10:55:07.788Z,165
2016-12-18T10:56:18.855Z,165
2016-12-18T10:57:30.053Z,170
2016-12-18T10:58:41.267Z,170
2016-12-18T10:59:52.257Z,165
2016-12-18T11:01:03.250Z,165
2016-12-18T11:02:14.291Z,165
2016-12-18T11:03:25.276Z,165
2016-12-18T11:04:36.472Z,165
2016-12-18T11:05:47.490Z,165
2016-12-18T11:06:58.476Z,160
2016-12-18T11:08:09.721Z,165
2016-12-18T11:09:20.773Z,165
2016-12-18T11:10:31.753Z,180
2016-12-18T11:11:42.738Z,190
2016-12-18T11:12:53.760Z,190
2016-12-18T11:14:04.796Z,175
2016-12-18T11:15:15.789Z,170
2016-12-18T11:16:26.779Z,170
2016-12-18T11:17:37.785Z,165
2016-12-18T11:18:48.767Z,150
2016-12-18T11:19:59.810Z,155
2016-12-18T11:21:10.846Z,175
2016-12-18T11:22:21.838Z,195
2016-12-18T11:23:32.825Z,185
2016-12-18T11:24:43.808Z,185
2016-12-18T11:25:54.853Z,180
2016-12-18T11:27:05.838Z,170
2016-12-18T11:28:17.025Z,155
2016-12-18T11:29:28.017Z,135
2016-12-18T11:30:39.000Z,110
2016-12-18T11:31:50.029Z,125
2016-12-18T11:33:01.017Z,130
2016-12-18T11:34:11.996Z,135
2016-12-18T11:35:22.988Z,140
2016-12-18T11:36:33.975Z,140
2016-12-18T11:37:45.013Z,130
2016-12-18T11:38:55.996Z,130
2016-12-18T11:40:06.986Z,125
2016-12-18T11:41:17.977Z,125
2016-12-18T11:42:28.958Z,125
2016-12-18T11:43:39.991Z,125
2016-12-18T11:44:50.976Z,130
2016-12-18T11:46:01.968Z,145
2016-12-18T11:47:12.957Z,155
2016-12-18T11:48:23.976Z,155
2016-12-18T11:49:35.014Z,150
2016-12-18T11:50:46.009Z,165
2016-12-18T11:51:57.000Z,170
2016-12-18T11:53:08.021Z,170
2016-12-18T11:54:19.010Z,170
2016-12-18T11:55:30.054Z,170
2016-12-18T11:56:41.071Z,160
2016-12-18T11:57:52.067Z,165
2016-12-18T11:59:03.054Z,170
2016-12-18T12:00:14.041Z,150
2016-12-18T12:01:25.077Z,165
2016-12-18T12:02:36.065Z,170
2016-12-18T12:03:47.052Z,160
2016-12-18T12:04:58.235Z,165
2016-12-18T12:06:09.217Z,145
2016-12-18T12:07:20.254Z,155
2016-12-18T12:08:31.251Z,155
2016-12-18T12:09:42.439Z,155
2016-12-18T12:10:53.434Z,155
2016-12-18T12:12:04.625Z,160
2016-12-18T12:13:15.668Z,160
2016-12-18T12:14:26.654Z,165
2016-12-18T12:15:37.836Z,160
2016-12-18T12:16:48.834Z,150
2016-12-18T12:17:59.822Z,150
2016-12-18T12:19:10.891Z,160
2016-12-18T12:20:21.888Z,160
2016-12-18T12:21:32.870Z,160
2016-12-18T12:22:43.862Z,155
2016-12-18T12:23:54.855Z,155
2016-12-18T12:25:05.895Z,150
2016-12-18T12:26:16.880Z,145
2016-12-18T12:27:27.868Z,140
2016-12-18T12:28:38.862Z,135
2016-12-18T12:29:49.854Z,135
2016-12-18T12:31:01.298Z,130
2016-12-18T12:32:12.296Z,140
2016-12-18T12:33:23.316Z,145
2016-12-18T12:34:34.307Z,140
2016-12-18T12:35:45.296Z,145
2016-12-18T12:36:56.333Z,150
2016-12-18T12:38:07.332Z,150
2016-12-18T12:39:18.318Z,155
2016-12-18T12:40:29.508Z,150
2016-12-18T12:41:40.495Z,150
2016-12-18T12:42:51.536Z,140
2016-12-18T12:44:02.554Z,135
2016-12-18T12:45:13.737Z,130
2016-12-18T12:46:24.727Z,130
2016-12-18T12:47:35.725Z,125
2016-12-18T12:48:46.765Z,120
2016-12-18T12:49:57.748Z,115
2016-12-18T12:51:08.729Z,110
2016-12-18T12:52:19.708Z,105
2016-12-18T12:53:30.700Z,105
2016-12-18T12:54:41.738Z,100
2016-12-18T12:55:52.725Z,90
2016-12-18T12:57:03.711Z,80
2016-12-18T12:58:14.903Z,80
2016-12-18T12:59:25.896Z,85
2016-12-18T13:00:36.927Z,90
2016-12-18T13:01:47.924Z,105
2016-12-18T13:02:58.912Z,120
2016-12-18T13:04:09.906Z,115
2016-12-18T13:05:20.897Z,115
2016-12-18T13:06:31.930Z,110
2016-12-18T13:07:42.915Z,110
2016-12-18T13:08:53.910Z,115
2016-12-18T13:10:04.896Z,115
2016-12-18T13:11:16.084Z,115
2016-12-18T13:12:27.317Z,115
2016-12-18T13:13:38.292Z,105
2016-12-18T13:14:49.493Z,100
2016-12-18T13:16:00.481Z,110
2016-12-18T13:17:11.474Z,120
2016-12-18T13:18:22.512Z,125
2016-12-18T13:19:33.499Z,120
2016-12-18T13:20:44.500Z,120
2016-12-18T13:21:55.492Z,120
2016-12-18T13:23:06.482Z,125
2016-12-18T13:24:17.525Z,130
2016-12-18T13:25:28.721Z,135
2016-12-18T13:26:39.704Z,135
2016-12-18T13:27:50.700Z,140
2016-12-18T13:29:01.688Z,140
2016-12-18T13:30:12.734Z,135
2016-12-18T13:31:23.926Z,140
2016-12-18T13:32:34.913Z,135
2016-12-18T13:33:45.901Z,135
2016-12-18T13:34:56.899Z,135
2016-12-18T13:36:07.925Z,120
2016-12-18T13:37:18.911Z,110
2016-12-18T13:38:29.896Z,105
2016-12-18T13:39:40.890Z,105
2016-12-18T13:40:51.877Z,95
2016-12-18T13:42:03.116Z,90
2016-12-18T13:43:14.108Z,90
2016-12-18T13:44:25.100Z,90
2016-12-18T13:45:36.287Z,90
2016-12-18T13:46:47.278Z,95
2016-12-18T13:47:58.470Z,100
2016-12-18T13:49:09.453Z,105
2016-12-18T13:50:20.449Z,110
2016-12-18T13:51:31.439Z,105
2016-12-18T13:52:42.480Z,105
2016-12-18T13:53:53.461Z,100
2016-12-18T13:55:04.647Z,100
2016-12-18T13:56:15.637Z,95
2016-12-18T13:57:26.623Z,100
2016-12-18T13:58:37.652Z,100
2016-12-18T13:59:48.663Z,100
2016-12-18T14:00:59.654Z,100
2016-12-18T14:02:10.645Z,100
2016-12-18T14:03:21.638Z,95
2016-12-18T14:04:32.883Z,95
2016-12-18T14:05:43.874Z,90
2016-12-18T14:06:54.864Z,85
2016-12-18T14:08:06.053Z,85
2016-12-18T14:09:17.040Z,80
2016-12-18T14:10:28.264Z,80
2016-12-18T14:11:39.254Z,75
2016-12-18T14:12:50.241Z,75
2016-12-18T14:14:01.235Z,70
2016-12-18T14:15:12.269Z,65
2016-12-18T14:16:23.263Z,65
2016-12-18T14:17:34.453Z,60
2016-12-18T14:18:45.643Z,60
2016-12-18T14:19:56.841Z,55
2016-12-18T14:21:07.898Z,55
2016-12-18T14:22:19.085Z,50
2016-12-18T14:23:30.074Z,45
2016-12-18T14:24:41.061Z,45
2016-12-18T14:25:52.082Z,45
2016-12-18T14:27:03.121Z,40
2016-12-18T14:28:14.105Z,35
2016-12-18T14:29:25.289Z,35
2016-12-18T14:30:36.505Z,30
2016-12-18T14:31:47.496Z,30
2016-12-18T14:32:58.532Z,30
2016-12-18T14:34:09.525Z,30
2016-12-18T14:35:20.518Z,30
2016-12-18T14:36:31.503Z,25
2016-12-18T14:37:42.690Z,25
2016-12-18T14:38:53.730Z,25
2016-12-18T14:40:04.724Z,25
2016-12-18T14:41:15.920Z,25
2016-12-18T14:42:26.914Z,25
2016-12-18T14:43:37.928Z,20
2016-12-18T14:44:48.983Z,20
2016-12-18T14:45:59.996Z,20
2016-12-18T14:47:10.989Z,20
2016-12-18T14:48:21.979Z,15
2016-12-18T14:49:33.169Z,15
2016-12-18T14:50:44.155Z,15
2016-12-18T14:51:55.150Z,15
2016-12-18T14:53:06.133Z,15
2016-12-18T14:54:17.118Z,15
2016-12-18T14:55:28.101Z,10
2016-12-18T14:56:39.091Z,10
2016-12-18T14:57:50.076Z,10
2016-12-18T14:59:01.077Z,10
2016-12-18T15:00:12.114Z,10
2016-12-18T15:01:23.131Z,5
2016-12-18T15:02:34.124Z,5
2016-12-18T15:03:45.114Z,5
2016-12-18T15:04:56.104Z,5
2016-12-18T15:06:07.292Z,5
2016-12-18T15:07:18.311Z,5
2016-12-18T15:08:29.505Z,5
2016-12-18T15:09:40.499Z,5
2016-12-18T15:10:51.528Z,5
2016-12-18T15:12:02.516Z,5
2016-12-18T15:13:13.505Z,0
2016-12-18T15:14:24.491Z,0
2016-12-18T15:15:35.502Z,0
2016-12-18T15:16:46.543Z,0
2016-12-18T15:17:57.535Z,0
2016-12-18T15:19:08.524Z,0
2016-12-18T15:20:19.735Z,0
2016-12-18T15:21:30.719Z,0
2016-12-18T15:22:41.756Z,0
2016-12-18T15:23:52.750Z,0
2016-12-18T15:25:03.743Z,0
2016-12-18T15:26:14.729Z,0
2016-12-18T15:27:25.708Z,0
2016-12-18T15:28:36.754Z,0
2016-12-18T15:29:47.944Z,0
2016-12-18T15:30:58.929Z,0
2016-12-18T15:32:09.953Z,0
2016-12-18T15:33:20.946Z,0
2016-12-18T15:34:31.983Z,0
2016-12-18T15:35:42.971Z,0
2016-12-18T15:36:54.165Z,0
2016-12-18T15:38:05.156Z,0
2016-12-18T15:39:16.143Z,0
2016-12-18T15:40:27.132Z,0
2016-12-18T15:41:38.120Z,0
2016-12-18T15:42:49.106Z,0
2016-12-18T15:44:00.094Z,0
2016-12-18T15:45:11.084Z,0
2016-12-18T15:46:22.277Z,0
2016-12-18T15:47:33.262Z,0
2016-12-18T15:48:44.656Z,0
2016-12-18T15:49:55.640Z,0
2016-12-18T15:51:06.629Z,0
2016-12-18T15:52:17.818Z,0
2016-12-18T15:53:28.817Z,0
2016-12-18T15:54:39.808Z,0
2016-12-18T15:55:50.797Z,0
2016-12-18T15:57:01.785Z,0
2016-12-18T15:58:12.971Z,0
2016-12-18T15:59:23.966Z,0
2016-12-18T16:00:35.227Z,0
2016-12-18T16:01:46.216Z,0
2016-12-18T16:02:57.599Z,0
2016-12-18T16:04:08.590Z,0
2016-12-18T16:05:19.584Z,0
2016-12-18T16:06:30.577Z,0
2016-12-18T16:07:41.578Z,0
2016-12-18T16:08:52.561Z,0
2016-12-18T16:10:03.550Z,0
2016-12-18T16:11:14.553Z,0
2016-12-18T16:12:25.537Z,0
2016-12-18T16:13:36.526Z,0
2016-12-18T16:14:47.511Z,0
2016-12-18T16:15:58.503Z,0
2016-12-18T16:17:09.502Z,0
2016-12-18T16:18:20.484Z,0
2016-12-18T16:19:31.673Z,0
2016-12-18T16:20:42.673Z,0
2016-12-18T16:21:53.674Z,0
2016-12-18T16:23:04.864Z,0
2016-12-18T16:24:16.054Z,0
2016-12-18T16:25:27.043Z,0
2016-12-18T16:26:38.029Z,0
2016-12-18T16:27:49.032Z,0
2016-12-18T16:29:00.029Z,0
2016-12-18T16:30:11.068Z,0
2016-12-18T16:31:22.054Z,0
2016-12-18T16:32:33.047Z,0
2016-12-18T16:33:44.031Z,0
2016-12-18T16:34:55.028Z,0
2016-12-18T16:36:06.068Z,0
2016-12-18T16:37:17.060Z,0
2016-12-18T16:38:28.043Z,0
2016-12-18T16:39:39.231Z,0
2016-12-18T16:40:50.225Z,0
2016-12-18T16:42:01.667Z,0
2016-12-18T16:43:12.664Z,0
2016-12-18T16:44:23.652Z,0
2016-12-18T16:45:34.839Z,0
2016-12-18T16:46:45.822Z,0
2016-12-18T16:47:56.892Z,0
2016-12-18T16:49:07.881Z,0
2016-12-18T16:50:18.866Z,0
2016-12-18T16:51:29.852Z,0
2016-12-18T16:52:40.843Z,0
2016-12-18T16:53:51.840Z,0
2016-12-18T16:55:03.049Z,0
2016-12-18T16:56:14.040Z,0
2016-12-18T16:57:25.055Z,0
2016-12-18T16:58:36.048Z,0
2016-12-18T16:59:47.037Z,0
2016-12-18T17:00:58.036Z,0
2016-12-18T17:02:09.023Z,0
2016-12-18T17:03:20.071Z,0
2016-12-18T17:04:31.267Z,0
2016-12-18T17:05:42.253Z,0